createdAt,value
2023-05-22T00:00:09.040Z,59.67
2023-05-22T00:02:35.560Z,59.62
2023-05-22T00:05:02.136Z,59.97
2023-05-22T00:07:28.616Z,59.62
2023-05-22T00:09:55.037Z,59.96
2023-05-22T00:12:21.500Z,59.91
2023-05-22T00:14:47.900Z,59.82
2023-05-22T00:17:14.374Z,59.83
2023-05-22T00:19:40.989Z,60.11
2023-05-22T00:22:07.432Z,60.11
2023-05-22T00:24:33.964Z,60.49
2023-05-22T00:27:00.590Z,60.92
2023-05-22T00:29:27.044Z,61.65
2023-05-22T00:31:53.477Z,62.08
2023-05-22T00:34:20.005Z,61.80
2023-05-22T00:36:46.503Z,62.57
2023-05-22T00:39:12.931Z,63.31
2023-05-22T00:41:39.425Z,63.13
2023-05-22T00:44:05.864Z,64.07
2023-05-22T00:46:32.493Z,64.18
2023-05-22T00:48:59.001Z,63.68
2023-05-22T00:51:25.426Z,64.25
2023-05-22T00:53:51.858Z,64.07
2023-05-22T00:56:18.301Z,63.65
2023-05-22T00:58:44.864Z,64.03
2023-05-22T01:01:11.289Z,63.68
2023-05-22T01:03:37.801Z,63.26
2023-05-22T01:06:04.256Z,64.07
2023-05-22T01:08:30.771Z,64.26
2023-05-22T01:10:57.242Z,65.21
2023-05-22T01:13:23.811Z,65.75
2023-05-22T01:15:50.449Z,65.68
2023-05-22T01:18:16.947Z,65.09
2023-05-22T01:20:43.443Z,65.78
2023-05-22T01:23:09.872Z,65.15
2023-05-22T01:25:36.327Z,64.46
2023-05-22T01:28:02.796Z,64.51
2023-05-22T01:30:29.326Z,64.59
2023-05-22T01:32:55.897Z,64.62
2023-05-22T01:35:22.371Z,64.43
2023-05-22T01:37:48.852Z,65.56
2023-05-22T01:40:15.311Z,65.50
2023-05-22T01:42:41.747Z,65.05
2023-05-22T01:45:08.283Z,64.83
2023-05-22T01:47:34.770Z,64.53
2023-05-22T01:50:01.279Z,65.08
2023-05-22T01:52:27.732Z,66.21
2023-05-22T01:54:54.277Z,67.66
2023-05-22T01:57:20.796Z,68.69
2023-05-22T01:59:47.233Z,67.90
2023-05-22T02:02:13.711Z,68.31
2023-05-22T02:04:40.227Z,68.25
2023-05-22T02:07:06.688Z,68.42
2023-05-22T02:09:33.116Z,68.92
2023-05-22T02:11:59.551Z,68.74
2023-05-22T02:14:25.997Z,69.19
2023-05-22T02:16:52.445Z,69.20
2023-05-22T02:19:19.029Z,68.66
2023-05-22T02:21:45.477Z,69.09
2023-05-22T02:24:11.881Z,69.03
2023-05-22T02:26:38.327Z,68.96
2023-05-22T02:29:04.785Z,69.30
2023-05-22T02:31:31.250Z,69.74
2023-05-22T02:33:57.707Z,70.13
2023-05-22T02:36:24.181Z,68.68
2023-05-22T02:38:50.663Z,67.99
2023-05-22T02:41:17.078Z,67.91
2023-05-22T02:43:43.489Z,67.87
2023-05-22T02:46:10.082Z,68.18
2023-05-22T02:48:36.561Z,67.88
2023-05-22T02:51:02.984Z,67.38
2023-05-22T02:53:29.449Z,67.73
2023-05-22T02:55:55.912Z,68.09
2023-05-22T02:58:22.372Z,68.96
2023-05-22T03:00:48.863Z,67.97
2023-05-22T03:03:15.407Z,68.52
2023-05-22T03:05:41.845Z,68.15
2023-05-22T03:08:08.314Z,67.20
2023-05-22T03:10:34.874Z,67.60
2023-05-22T03:13:01.285Z,67.76
2023-05-22T03:15:27.757Z,68.85
2023-05-22T03:17:54.310Z,68.71
2023-05-22T03:20:20.791Z,68.33
2023-05-22T03:22:47.258Z,67.62
2023-05-22T03:25:13.737Z,68.46
2023-05-22T03:27:40.153Z,68.17
2023-05-22T03:30:06.634Z,67.82
2023-05-22T03:32:33.161Z,67.74
2023-05-22T03:34:59.638Z,67.13
2023-05-22T03:37:26.084Z,66.24
2023-05-22T03:39:52.632Z,66.42
2023-05-22T03:42:19.098Z,67.01
2023-05-22T03:44:45.511Z,67.97
2023-05-22T03:47:11.942Z,68.17
2023-05-22T03:49:38.355Z,68.31
2023-05-22T03:52:04.823Z,68.73
2023-05-22T03:54:31.301Z,69.08
2023-05-22T03:56:57.727Z,69.36
2023-05-22T03:59:24.245Z,69.12
2023-05-22T04:01:50.656Z,69.13
2023-05-22T04:04:17.100Z,68.18
2023-05-22T04:06:43.683Z,67.77
2023-05-22T04:09:10.147Z,67.65
2023-05-22T04:11:36.576Z,66.25
2023-05-22T04:14:02.998Z,65.78
2023-05-22T04:16:29.560Z,65.69
2023-05-22T04:18:56.231Z,65.59
2023-05-22T04:21:22.680Z,65.11
2023-05-22T04:23:49.122Z,65.87
2023-05-22T04:26:15.558Z,65.06
2023-05-22T04:28:42.003Z,64.88
2023-05-22T04:31:08.454Z,65.04
2023-05-22T04:33:34.997Z,64.41
2023-05-22T04:36:01.427Z,64.21
2023-05-22T04:38:27.947Z,63.62
2023-05-22T04:40:54.370Z,62.84
2023-05-22T04:43:20.798Z,62.79
2023-05-22T04:45:47.247Z,61.33
2023-05-22T04:48:13.693Z,60.69
2023-05-22T04:50:40.639Z,60.58
2023-05-22T04:53:07.218Z,60.17
2023-05-22T04:55:33.639Z,60.01
2023-05-22T04:58:00.057Z,60.02
2023-05-22T05:00:26.542Z,59.72
2023-05-22T05:02:53.034Z,59.93
2023-05-22T05:05:19.544Z,59.97
2023-05-22T05:07:47.160Z,60.29
2023-05-22T05:10:14.861Z,60.67
2023-05-22T05:12:41.272Z,60.52
2023-05-22T05:15:07.702Z,60.83
2023-05-22T05:17:34.241Z,60.55
2023-05-22T05:20:00.726Z,60.70
2023-05-22T05:22:27.224Z,59.66
2023-05-22T05:24:53.677Z,59.90
2023-05-22T05:27:20.090Z,59.10
2023-05-22T05:29:46.529Z,59.58
2023-05-22T05:32:12.996Z,59.72
2023-05-22T05:34:39.552Z,59.99
2023-05-22T05:37:06.008Z,59.85
2023-05-22T05:39:32.448Z,60.33
2023-05-22T05:41:58.886Z,60.10
2023-05-22T05:44:25.333Z,61.08
2023-05-22T05:46:51.776Z,61.88
2023-05-22T05:49:18.206Z,60.73
2023-05-22T05:51:44.656Z,61.55
2023-05-22T05:54:11.097Z,61.36
2023-05-22T05:56:37.595Z,61.37
2023-05-22T05:59:04.037Z,61.48
2023-05-22T06:01:30.478Z,61.09
2023-05-22T06:03:57.039Z,61.33
2023-05-22T06:06:23.552Z,60.68
2023-05-22T06:08:50.136Z,60.19
2023-05-22T06:11:16.596Z,60.14
2023-05-22T06:13:43.031Z,60.29
2023-05-22T06:16:09.685Z,60.13
2023-05-22T06:18:36.265Z,60.82
2023-05-22T06:21:02.690Z,62.15
2023-05-22T06:23:29.172Z,62.40
2023-05-22T06:25:55.636Z,63.15
2023-05-22T06:28:22.282Z,62.90
2023-05-22T06:30:48.879Z,61.30
2023-05-22T06:33:15.554Z,61.17
2023-05-22T06:35:42.096Z,59.62
2023-05-22T06:38:08.525Z,59.84
2023-05-22T06:40:34.991Z,59.42
2023-05-22T06:43:01.466Z,57.63
2023-05-22T06:45:28.113Z,55.69
2023-05-22T06:47:54.613Z,54.54
2023-05-22T06:50:21.127Z,53.24
2023-05-22T06:52:47.523Z,53.29
2023-05-22T06:55:13.962Z,53.07
2023-05-22T06:57:40.403Z,52.49
2023-05-22T07:00:06.849Z,52.48
2023-05-22T07:02:33.329Z,52.04
2023-05-22T07:04:59.780Z,51.91
2023-05-22T07:07:26.253Z,51.94
2023-05-22T07:09:52.687Z,52.36
2023-05-22T07:12:19.175Z,52.73
2023-05-22T07:14:45.591Z,52.56
2023-05-22T07:17:12.097Z,52.36
2023-05-22T07:19:38.582Z,52.65
2023-05-22T07:22:05.133Z,53.23
2023-05-22T07:24:31.564Z,53.27
2023-05-22T07:26:58.021Z,53.55
2023-05-22T07:29:24.449Z,53.66
2023-05-22T07:31:50.949Z,53.14
2023-05-22T07:34:17.431Z,53.03
2023-05-22T07:36:43.854Z,53.61
2023-05-22T07:39:10.311Z,53.63
2023-05-22T07:41:36.807Z,53.54
2023-05-22T07:44:03.342Z,53.25
2023-05-22T07:46:29.827Z,53.76
2023-05-22T07:48:56.284Z,53.76
2023-05-22T07:51:22.716Z,53.12
2023-05-22T07:53:49.159Z,52.84
2023-05-22T07:56:15.623Z,52.55
2023-05-22T07:58:42.059Z,51.96
2023-05-22T08:01:09.629Z,51.61
2023-05-22T08:03:36.462Z,51.31
2023-05-22T08:06:03.051Z,51.37
2023-05-22T08:08:31.680Z,51.34
2023-05-22T08:13:27.941Z,50.13
2023-05-22T08:16:00.467Z,49.78
2023-05-22T08:18:27.478Z,49.37
2023-05-22T08:20:54.949Z,49.08
2023-05-22T08:23:21.534Z,48.50
2023-05-22T08:25:47.949Z,48.37
2023-05-22T08:28:14.379Z,48.63
2023-05-22T08:30:41.054Z,47.80
2023-05-22T08:33:07.749Z,47.95
2023-05-22T08:35:34.360Z,48.01
2023-05-22T08:38:00.788Z,48.10
2023-05-22T08:40:27.304Z,47.53
2023-05-22T08:42:55.077Z,47.95
2023-05-22T08:45:21.695Z,47.51
2023-05-22T08:47:48.171Z,47.67
2023-05-22T08:50:14.654Z,48.21
2023-05-22T08:52:41.099Z,47.30
2023-05-22T08:55:07.554Z,47.37
2023-05-22T08:57:33.994Z,47.02
2023-05-22T09:00:00.413Z,46.50
2023-05-22T09:02:26.879Z,46.06
2023-05-22T09:04:53.367Z,46.52
2023-05-22T09:07:19.861Z,46.58
2023-05-22T09:09:46.447Z,46.37
2023-05-22T09:12:13.018Z,46.72
2023-05-22T09:14:39.479Z,45.97
2023-05-22T09:17:05.996Z,46.03
2023-05-22T09:19:32.653Z,45.69
2023-05-22T09:21:59.155Z,44.97
2023-05-22T09:24:25.605Z,44.13
2023-05-22T09:26:52.094Z,44.11
2023-05-22T09:29:18.533Z,43.93
2023-05-22T09:31:45.231Z,44.35
2023-05-22T09:34:11.909Z,43.95
2023-05-22T09:36:38.312Z,43.22
2023-05-22T09:39:04.860Z,43.58
2023-05-22T09:41:31.280Z,43.08
2023-05-22T09:43:59.748Z,43.22
2023-05-22T09:46:27.606Z,43.22
2023-05-22T09:48:54.108Z,42.76
2023-05-22T09:51:20.508Z,42.73
2023-05-22T09:53:46.950Z,42.29
2023-05-22T09:56:13.894Z,42.61
2023-05-22T09:58:41.160Z,41.84
2023-05-22T10:01:07.635Z,40.99
2023-05-22T10:03:34.064Z,40.76
2023-05-22T10:06:00.521Z,40.85
2023-05-22T10:08:27.140Z,40.73
2023-05-22T10:10:53.586Z,40.56
2023-05-22T10:13:20.049Z,40.45
2023-05-22T10:15:46.528Z,40.35
2023-05-22T10:18:13.068Z,39.74
2023-05-22T10:20:39.744Z,39.80
2023-05-22T10:23:06.453Z,39.66
2023-05-22T10:25:32.894Z,39.44
2023-05-22T10:27:59.321Z,39.35
2023-05-22T10:30:25.836Z,39.65
2023-05-22T10:32:52.293Z,39.50
2023-05-22T10:35:18.712Z,39.13
2023-05-22T10:37:45.216Z,38.71
2023-05-22T10:40:11.643Z,39.03
2023-05-22T10:42:38.218Z,38.29
2023-05-22T10:45:04.742Z,37.83
2023-05-22T10:47:31.207Z,36.91
2023-05-22T10:49:57.726Z,37.67
2023-05-22T10:52:24.139Z,36.42
2023-05-22T10:54:50.591Z,38.00
2023-05-22T10:57:17.079Z,36.64
2023-05-22T10:59:43.474Z,36.62
2023-05-22T11:02:11.563Z,36.44
2023-05-22T11:04:38.482Z,36.45
2023-05-22T11:07:04.961Z,36.05
2023-05-22T11:09:31.391Z,34.81
2023-05-22T11:11:57.856Z,34.52
2023-05-22T11:14:24.327Z,34.53
2023-05-22T11:16:50.842Z,35.01
2023-05-22T11:21:46.592Z,36.26
2023-05-22T11:24:13.028Z,35.56
2023-05-22T11:26:39.467Z,34.89
2023-05-22T11:29:06.000Z,35.37
2023-05-22T11:31:32.543Z,35.24
2023-05-22T11:33:58.992Z,34.70
2023-05-22T11:36:25.419Z,34.88
2023-05-22T11:38:51.936Z,34.02
2023-05-22T11:41:18.381Z,34.44
2023-05-22T11:43:44.815Z,34.27
2023-05-22T11:46:11.315Z,34.45
2023-05-22T11:48:37.838Z,35.52
2023-05-22T11:51:04.269Z,35.53
2023-05-22T11:53:30.681Z,35.98
2023-05-22T11:55:57.174Z,36.24
2023-05-22T11:58:23.603Z,36.32
2023-05-22T12:00:50.089Z,35.66
2023-05-22T12:03:16.663Z,36.74
2023-05-22T12:05:43.191Z,37.10
2023-05-22T12:08:09.597Z,37.10
2023-05-22T12:10:36.024Z,36.89
2023-05-22T12:13:02.479Z,36.83
2023-05-22T12:15:28.968Z,37.12
2023-05-22T12:17:55.645Z,36.34
2023-05-22T12:20:22.135Z,37.09
2023-05-22T12:22:48.662Z,37.42
2023-05-22T12:25:15.103Z,37.84
2023-05-22T12:27:41.547Z,37.00
2023-05-22T12:30:07.988Z,35.81
2023-05-22T12:32:34.497Z,35.56
2023-05-22T12:35:01.006Z,35.80
2023-05-22T12:37:27.465Z,34.48
2023-05-22T12:39:53.863Z,34.45
2023-05-22T12:42:20.267Z,34.38
2023-05-22T12:44:46.717Z,34.36
2023-05-22T12:47:13.264Z,35.01
2023-05-22T12:49:39.711Z,35.46
2023-05-22T12:52:06.117Z,34.78
2023-05-22T12:54:32.547Z,33.52
2023-05-22T12:56:59.000Z,33.68
2023-05-22T12:59:25.437Z,34.25
2023-05-22T13:01:51.954Z,34.07
2023-05-22T13:04:18.517Z,33.92
2023-05-22T13:06:44.969Z,32.89
2023-05-22T13:09:11.436Z,32.76
2023-05-22T13:11:37.884Z,31.94
2023-05-22T13:14:04.350Z,31.88
2023-05-22T13:16:30.819Z,31.53
2023-05-22T13:18:57.298Z,31.72
2023-05-22T13:21:26.321Z,31.35
2023-05-22T13:23:53.013Z,31.89
2023-05-22T13:26:19.454Z,31.77
2023-05-22T13:28:46.041Z,31.82
2023-05-22T13:31:12.470Z,32.07
2023-05-22T13:33:38.941Z,31.50
2023-05-22T13:36:05.408Z,31.24
2023-05-22T13:38:31.838Z,31.10
2023-05-22T13:40:58.284Z,31.22
2023-05-22T13:43:24.706Z,31.23
2023-05-22T13:45:51.199Z,31.29
2023-05-22T13:48:18.154Z,30.24
2023-05-22T13:50:44.603Z,29.71
2023-05-22T13:53:11.108Z,30.54
2023-05-22T13:55:37.859Z,30.94
2023-05-22T13:58:04.483Z,31.15
2023-05-22T14:00:30.895Z,31.17
2023-05-22T14:02:57.379Z,31.45
2023-05-22T14:05:23.888Z,31.78
2023-05-22T14:07:50.441Z,32.15
2023-05-22T14:10:16.898Z,34.91
2023-05-22T14:12:43.361Z,38.92
2023-05-22T14:15:09.880Z,38.64
2023-05-22T14:17:36.554Z,38.79
2023-05-22T14:20:03.325Z,38.61
2023-05-22T14:22:30.631Z,38.79
2023-05-22T14:24:59.143Z,38.01
2023-05-22T14:27:25.570Z,38.48
2023-05-22T14:29:52.033Z,36.53
2023-05-22T14:32:18.490Z,35.57
2023-05-22T14:34:44.924Z,31.35
2023-05-22T14:37:11.372Z,32.75
2023-05-22T14:39:37.786Z,32.20
2023-05-22T14:42:05.987Z,29.22
2023-05-22T14:44:32.510Z,27.35
2023-05-22T14:46:58.970Z,26.58
2023-05-22T14:49:25.619Z,24.70
2023-05-22T14:51:52.069Z,24.96
2023-05-22T14:54:18.540Z,24.33
2023-05-22T14:56:45.128Z,22.37
2023-05-22T14:59:11.580Z,23.11
2023-05-22T15:01:38.013Z,22.26
2023-05-22T15:04:04.551Z,21.91
2023-05-22T15:06:31.041Z,21.08
2023-05-22T15:08:57.589Z,18.97
2023-05-22T15:11:24.017Z,18.65
2023-05-22T15:13:50.429Z,18.33
2023-05-22T15:16:17.030Z,18.02
2023-05-22T15:18:43.476Z,16.89
2023-05-22T15:21:10.138Z,16.03
2023-05-22T15:23:36.574Z,15.55
2023-05-22T15:26:03.281Z,17.78
2023-05-22T15:28:29.706Z,17.64
2023-05-22T15:30:56.155Z,17.18
2023-05-22T15:33:22.655Z,15.46
2023-05-22T15:35:49.200Z,15.21
2023-05-22T15:38:15.649Z,14.58
2023-05-22T15:40:42.070Z,14.16
2023-05-22T15:43:08.570Z,14.46
2023-05-22T15:45:35.155Z,15.99
2023-05-22T15:48:01.625Z,15.26
2023-05-22T15:50:28.381Z,15.13
2023-05-22T15:52:54.798Z,14.77
2023-05-22T15:55:21.262Z,14.24
2023-05-22T15:57:47.772Z,15.67
2023-05-22T16:00:15.235Z,15.14
2023-05-22T16:02:42.974Z,14.98
2023-05-22T16:05:09.624Z,14.92
2023-05-22T16:07:36.244Z,14.21
2023-05-22T16:10:02.759Z,13.79
2023-05-22T16:12:29.333Z,14.48
2023-05-22T16:15:00.240Z,16.37
2023-05-22T16:17:27.384Z,15.14
2023-05-22T16:19:53.960Z,16.09
2023-05-22T16:22:20.422Z,16.33
2023-05-22T16:24:46.945Z,17.51
2023-05-22T16:27:13.366Z,17.98
2023-05-22T16:29:39.783Z,16.93
2023-05-22T16:32:06.246Z,18.06
2023-05-22T16:34:32.758Z,18.15
2023-05-22T16:36:59.449Z,19.88
2023-05-22T16:39:25.878Z,20.42
2023-05-22T16:41:53.824Z,21.68
2023-05-22T16:44:20.521Z,22.28
2023-05-22T16:46:47.025Z,22.70
2023-05-22T16:49:13.549Z,23.55
2023-05-22T16:51:40.123Z,23.89
2023-05-22T16:54:06.564Z,24.42
2023-05-22T16:56:33.007Z,25.01
2023-05-22T16:58:59.463Z,25.48
2023-05-22T17:01:25.972Z,25.52
2023-05-22T17:03:52.499Z,25.43
2023-05-22T17:06:20.965Z,25.07
2023-05-22T17:08:47.612Z,25.56
2023-05-22T17:11:14.033Z,26.09
2023-05-22T17:13:40.491Z,25.92
2023-05-22T17:16:06.925Z,26.33
2023-05-22T17:18:35.956Z,26.84
2023-05-22T17:21:02.377Z,26.51
2023-05-22T17:23:28.852Z,26.93
2023-05-22T17:25:55.399Z,27.51
2023-05-22T17:28:21.833Z,28.72
2023-05-22T17:30:48.314Z,28.58
2023-05-22T17:33:14.939Z,29.55
2023-05-22T17:35:41.450Z,30.21
2023-05-22T17:38:08.006Z,29.67
2023-05-22T17:40:44.209Z,31.96
2023-05-22T17:43:11.759Z,30.18
2023-05-22T17:45:38.257Z,28.88
2023-05-22T17:48:04.713Z,31.06
2023-05-22T17:50:31.220Z,30.31
2023-05-22T17:52:57.827Z,32.52
2023-05-22T17:55:24.281Z,32.36
2023-05-22T17:57:50.919Z,33.01
2023-05-22T18:00:17.354Z,33.86
2023-05-22T18:02:43.818Z,33.12
2023-05-22T18:05:10.478Z,33.33
2023-05-22T18:07:37.012Z,34.52
2023-05-22T18:10:03.453Z,35.20
2023-05-22T18:12:32.318Z,35.44
2023-05-22T18:14:58.965Z,35.61
2023-05-22T18:17:25.408Z,36.29
2023-05-22T18:19:51.945Z,36.51
2023-05-22T18:22:18.456Z,37.14
2023-05-22T18:24:44.914Z,37.04
2023-05-22T18:27:11.420Z,37.38
2023-05-22T18:29:37.855Z,37.76
2023-05-22T18:32:04.328Z,36.07
2023-05-22T18:34:30.784Z,36.71
2023-05-22T18:36:57.296Z,36.74
2023-05-22T18:39:23.759Z,37.09
2023-05-22T18:41:50.169Z,37.03
2023-05-22T18:44:16.592Z,37.05
2023-05-22T18:46:43.026Z,36.99
2023-05-22T18:49:09.510Z,37.23
2023-05-22T18:51:35.908Z,37.54
2023-05-22T18:54:02.325Z,37.41
2023-05-22T18:56:28.765Z,37.53
2023-05-22T18:58:55.280Z,37.53
2023-05-22T19:01:21.759Z,37.88
2023-05-22T19:03:48.293Z,37.60
2023-05-22T19:06:14.856Z,37.94
2023-05-22T19:08:41.354Z,37.92
2023-05-22T19:11:07.952Z,38.14
2023-05-22T19:13:34.411Z,37.62
2023-05-22T19:16:00.884Z,37.37
2023-05-22T19:18:27.337Z,37.40
2023-05-22T19:20:54.004Z,37.88
2023-05-22T19:23:20.642Z,38.08
2023-05-22T19:25:47.064Z,38.55
2023-05-22T19:28:13.473Z,39.11
2023-05-22T19:30:40.332Z,38.66
2023-05-22T19:33:08.885Z,38.74
2023-05-22T19:35:35.613Z,38.97
2023-05-22T19:38:02.051Z,39.23
2023-05-22T19:40:28.531Z,39.02
2023-05-22T19:42:55.065Z,39.26
2023-05-22T19:45:21.521Z,39.86
2023-05-22T19:47:48.230Z,40.01
2023-05-22T19:50:14.729Z,40.22
2023-05-22T19:52:41.163Z,40.45
2023-05-22T19:55:07.620Z,40.12
2023-05-22T19:57:34.099Z,40.53
2023-05-22T20:00:00.551Z,40.53
2023-05-22T20:02:27.084Z,40.75
2023-05-22T20:04:53.701Z,41.18
2023-05-22T20:07:20.153Z,41.52
2023-05-22T20:09:46.579Z,42.03
2023-05-22T20:12:12.976Z,42.11
2023-05-22T20:14:39.442Z,42.88
2023-05-22T20:17:05.868Z,43.21
2023-05-22T20:19:32.455Z,42.93
2023-05-22T20:21:59.109Z,43.12
2023-05-22T20:24:25.573Z,42.94
2023-05-22T20:26:52.025Z,43.46
2023-05-22T20:29:18.457Z,43.99
2023-05-22T20:31:44.936Z,43.42
2023-05-22T20:34:11.408Z,44.13
2023-05-22T20:36:37.887Z,44.30
2023-05-22T20:39:04.347Z,43.80
2023-05-22T20:41:30.802Z,43.68
2023-05-22T20:43:57.198Z,44.00
2023-05-22T20:46:23.629Z,44.37
2023-05-22T20:48:50.066Z,44.91
2023-05-22T20:51:16.489Z,44.56
2023-05-22T20:53:42.964Z,44.26
2023-05-22T20:56:09.416Z,45.10
2023-05-22T20:58:37.376Z,45.32
2023-05-22T21:01:05.521Z,45.31
2023-05-22T21:03:31.983Z,45.67
2023-05-22T21:05:58.477Z,46.07
2023-05-22T21:08:25.001Z,46.68
2023-05-22T21:10:51.444Z,46.85
2023-05-22T21:13:17.935Z,46.90
2023-05-22T21:15:44.526Z,46.49
2023-05-22T21:18:10.959Z,46.17
2023-05-22T21:20:37.414Z,46.07
2023-05-22T21:23:03.907Z,46.56
2023-05-22T21:25:30.357Z,46.52
2023-05-22T21:27:56.792Z,47.05
2023-05-22T21:30:23.256Z,47.24
2023-05-22T21:32:49.698Z,47.41
2023-05-22T21:35:16.126Z,47.14
2023-05-22T21:37:42.567Z,46.81
2023-05-22T21:40:08.954Z,46.57
2023-05-22T21:42:45.940Z,45.85
2023-05-22T21:45:13.723Z,45.93
2023-05-22T21:47:40.212Z,45.71
2023-05-22T21:50:06.693Z,45.78
2023-05-22T21:52:33.098Z,45.46
2023-05-22T21:54:59.507Z,45.71
2023-05-22T21:57:25.925Z,46.66
2023-05-22T21:59:52.362Z,47.28
2023-05-22T22:02:18.762Z,46.97
2023-05-22T22:04:45.194Z,47.57
2023-05-22T22:07:11.854Z,47.36
2023-05-22T22:09:38.293Z,47.62
2023-05-22T22:12:04.694Z,46.99
2023-05-22T22:14:31.157Z,47.49
2023-05-22T22:16:57.633Z,47.33
2023-05-22T22:19:24.318Z,46.84
2023-05-22T22:21:50.942Z,47.33
2023-05-22T22:24:17.363Z,46.88
2023-05-22T22:26:43.764Z,47.23
2023-05-22T22:29:10.209Z,47.25
2023-05-22T22:31:36.672Z,47.28
2023-05-22T22:34:03.134Z,47.08
2023-05-22T22:36:29.594Z,47.43
2023-05-22T22:38:56.045Z,47.26
2023-05-22T22:41:22.481Z,47.42
2023-05-22T22:43:48.937Z,48.16
2023-05-22T22:46:15.378Z,48.56
2023-05-22T22:48:41.831Z,48.82
2023-05-22T22:51:08.261Z,49.46
2023-05-22T22:53:34.666Z,49.08
2023-05-22T22:56:01.163Z,49.57
2023-05-22T22:58:27.660Z,49.24
2023-05-22T23:00:54.086Z,49.30
2023-05-22T23:03:20.530Z,50.49
2023-05-22T23:05:47.000Z,50.39
2023-05-22T23:08:13.469Z,50.38
2023-05-22T23:10:39.890Z,50.79
2023-05-22T23:13:06.313Z,50.91
2023-05-22T23:15:32.908Z,51.19
2023-05-22T23:17:59.390Z,51.71
2023-05-22T23:20:25.862Z,52.30
2023-05-22T23:22:52.326Z,51.82
2023-05-22T23:25:18.866Z,52.64
2023-05-22T23:27:45.515Z,52.32
2023-05-22T23:30:11.915Z,52.78
2023-05-22T23:32:38.372Z,53.52
2023-05-22T23:35:04.769Z,54.22
2023-05-22T23:37:31.339Z,54.20
2023-05-22T23:39:57.800Z,53.73
2023-05-22T23:42:24.233Z,53.73
2023-05-22T23:44:50.656Z,53.89
2023-05-22T23:47:17.099Z,54.83
2023-05-22T23:49:43.541Z,54.67
2023-05-22T23:52:10.109Z,54.61
2023-05-22T23:54:36.536Z,54.69
2023-05-22T23:57:02.954Z,54.94
2023-05-22T23:59:29.398Z,54.82
